createdAt,value
2018-12-08T00:01:13.406Z,95744.60
2018-12-08T00:03:39.283Z,95746.83
2018-12-08T00:06:05.186Z,95757.43
2018-12-08T00:08:31.064Z,95781.57
2018-12-08T00:10:57.270Z,95782.09
2018-12-08T00:13:23.144Z,95787.50
2018-12-08T00:15:49.049Z,95779.66
2018-12-08T00:18:14.949Z,95786.28
2018-12-08T00:20:40.827Z,95792.64
2018-12-08T00:23:06.703Z,95786.87
2018-12-08T00:25:32.602Z,95782.92
2018-12-08T00:27:58.491Z,95813.69
2018-12-08T00:33:26.275Z,95829.02
2018-12-08T00:35:52.123Z,95826.82
2018-12-08T00:38:17.999Z,95820.76
2018-12-08T00:40:43.866Z,95821.16
2018-12-08T00:43:09.750Z,95814.52
2018-12-08T00:45:35.610Z,95834.21
2018-12-08T00:48:01.499Z,95835.47
2018-12-08T00:50:27.379Z,95842.97
2018-12-08T00:52:54.222Z,95849.85
2018-12-08T00:55:20.220Z,95873.55
2018-12-08T00:57:46.098Z,95896.17
2018-12-08T01:00:12.114Z,95907.58
2018-12-08T01:02:38.027Z,95917.86
2018-12-08T01:05:04.130Z,95922.09
2018-12-08T01:07:30.037Z,95930.66
2018-12-08T01:09:56.057Z,95941.36
2018-12-08T01:12:22.062Z,95944.63
2018-12-08T01:14:47.979Z,95945.14
2018-12-08T01:17:13.846Z,95960.11
2018-12-08T01:19:39.727Z,95961.82
2018-12-08T01:22:05.599Z,95956.25
2018-12-08T01:24:31.494Z,95954.79
2018-12-08T01:26:57.374Z,95956.41
2018-12-08T01:29:23.259Z,95964.79
2018-12-08T01:31:49.116Z,95965.37
2018-12-08T01:34:15.007Z,95960.86
2018-12-08T01:36:40.878Z,95963.63
2018-12-08T01:39:06.755Z,95960.38
2018-12-08T01:41:32.763Z,95962.81
2018-12-08T01:43:58.615Z,95953.13
2018-12-08T01:46:24.510Z,95954.05
2018-12-08T01:48:50.351Z,95970.86
2018-12-08T01:51:16.323Z,95987.62
2018-12-08T01:53:42.159Z,96014.89
2018-12-08T01:56:08.040Z,96009.54
2018-12-08T01:58:33.934Z,96007.74
2018-12-08T02:00:59.851Z,96018.82
2018-12-08T02:06:20.640Z,96031.04
2018-12-08T02:08:46.511Z,96030.02
2018-12-08T02:11:12.395Z,96027.46
2018-12-08T02:13:38.271Z,96035.21
2018-12-08T02:16:04.189Z,96031.65
2018-12-08T02:18:30.066Z,96039.54
2018-12-08T02:20:55.929Z,96039.14
2018-12-08T02:23:21.837Z,96036.13
2018-12-08T02:25:47.768Z,96041.34
2018-12-08T02:28:13.644Z,96050.97
2018-12-08T02:30:39.663Z,96059.19
2018-12-08T02:33:05.570Z,96062.20
2018-12-08T02:35:31.451Z,96063.75
2018-12-08T02:37:57.353Z,96063.13
2018-12-08T02:40:23.250Z,96079.48
2018-12-08T02:42:49.155Z,96080.32
2018-12-08T02:45:15.035Z,96083.02
2018-12-08T02:47:40.900Z,96081.50
2018-12-08T02:50:07.039Z,96082.34
2018-12-08T02:52:33.009Z,96089.73
2018-12-08T02:54:58.896Z,96085.27
2018-12-08T02:57:24.775Z,96081.47
2018-12-08T02:59:50.650Z,96093.08
2018-12-08T03:02:16.536Z,96099.77
2018-12-08T03:04:42.426Z,96093.75
2018-12-08T03:07:08.291Z,96096.38
2018-12-08T03:09:34.212Z,96098.22
2018-12-08T03:12:00.103Z,96103.16
2018-12-08T03:14:25.996Z,96107.63
2018-12-08T03:16:52.079Z,96113.66
2018-12-08T03:19:17.955Z,96107.63
2018-12-08T03:21:43.892Z,96110.80
2018-12-08T03:24:09.781Z,96114.63
2018-12-08T03:26:35.646Z,96122.77
2018-12-08T03:29:01.578Z,96124.08
2018-12-08T03:31:27.452Z,96127.73
2018-12-08T03:33:53.459Z,96127.77
2018-12-08T03:36:19.322Z,96137.26
2018-12-08T03:38:45.194Z,96140.55
2018-12-08T03:41:11.058Z,96135.91
2018-12-08T03:43:36.925Z,96145.62
2018-12-08T03:46:02.931Z,96139.06
2018-12-08T03:48:28.798Z,96150.09
2018-12-08T03:50:54.666Z,96144.30
2018-12-08T03:53:20.641Z,96147.47
2018-12-08T03:55:46.504Z,96150.59
2018-12-08T03:58:12.373Z,96148.27
2018-12-08T04:00:38.266Z,96140.47
2018-12-08T04:03:04.133Z,96145.78
2018-12-08T04:05:29.993Z,96149.77
2018-12-08T04:07:55.880Z,96138.28
2018-12-08T04:10:21.776Z,96140.70
2018-12-08T04:12:47.686Z,96154.34
2018-12-08T04:15:13.630Z,96152.02
2018-12-08T04:17:39.502Z,96133.91
2018-12-08T04:20:05.448Z,96144.09
2018-12-08T04:22:31.448Z,96154.58
2018-12-08T04:24:57.368Z,96156.39
2018-12-08T04:27:23.333Z,96162.41
2018-12-08T04:29:49.208Z,96157.64
2018-12-08T04:32:15.057Z,96159.13
2018-12-08T04:34:40.946Z,96155.73
2018-12-08T04:37:06.899Z,96161.03
2018-12-08T04:39:32.806Z,96149.54
2018-12-08T04:41:58.783Z,96164.19
2018-12-08T04:44:24.758Z,96155.08
2018-12-08T04:46:50.622Z,96138.52
2018-12-08T04:49:16.495Z,96147.92
2018-12-08T04:51:42.341Z,96159.95
2018-12-08T04:54:08.207Z,96160.97
2018-12-08T04:56:34.077Z,96157.04
2018-12-08T04:58:59.923Z,96168.30
2018-12-08T05:01:25.820Z,96157.81
2018-12-08T05:03:51.700Z,96176.94
2018-12-08T05:06:17.678Z,96176.10
2018-12-08T05:08:43.537Z,96170.08
2018-12-08T05:11:09.461Z,96172.70
2018-12-08T05:13:35.326Z,96175.09
2018-12-08T05:16:01.184Z,96179.92
2018-12-08T05:18:27.043Z,96182.30
2018-12-08T05:20:52.934Z,96177.63
2018-12-08T05:23:18.806Z,96190.50
2018-12-08T05:25:44.699Z,96189.48
2018-12-08T05:28:10.596Z,96193.72
2018-12-08T05:30:36.497Z,96194.02
2018-12-08T05:33:02.356Z,96200.03
2018-12-08T05:35:28.251Z,96194.38
2018-12-08T05:37:54.158Z,96199.97
2018-12-08T05:40:20.037Z,96207.59
2018-12-08T05:42:45.943Z,96209.14
2018-12-08T05:45:11.935Z,96129.25
2018-12-08T05:47:37.867Z,96200.72
2018-12-08T05:50:05.391Z,96213.28
2018-12-08T05:52:31.310Z,96211.44
2018-12-08T05:54:57.166Z,96212.75
2018-12-08T05:57:23.063Z,96205.66
2018-12-08T05:59:48.917Z,96214.59
2018-12-08T06:02:14.935Z,96209.59
2018-12-08T06:04:40.814Z,96215.61
2018-12-08T06:07:06.723Z,96201.66
2018-12-08T06:09:32.572Z,96208.22
2018-12-08T06:11:58.481Z,96209.77
2018-12-08T06:14:24.355Z,96206.67
2018-12-08T06:16:50.217Z,96208.52
2018-12-08T06:19:16.126Z,96212.98
2018-12-08T06:21:42.058Z,96198.09
2018-12-08T06:24:08.067Z,96219.57
2018-12-08T06:26:36.884Z,96224.81
2018-12-08T06:29:02.794Z,96219.92
2018-12-08T06:31:28.675Z,96215.81
2018-12-08T06:33:54.558Z,96226.66
2018-12-08T06:36:20.423Z,96227.22
2018-12-08T06:38:46.443Z,96233.30
2018-12-08T06:41:12.303Z,96228.59
2018-12-08T06:43:38.195Z,96227.52
2018-12-08T06:46:04.098Z,96227.81
2018-12-08T06:48:29.962Z,96223.05
2018-12-08T06:50:55.871Z,96217.39
2018-12-08T06:53:21.800Z,96249.48
2018-12-08T06:55:47.714Z,96239.09
2018-12-08T06:58:13.615Z,96238.80
2018-12-08T07:00:39.524Z,96249.56
2018-12-08T07:03:05.432Z,96239.91
2018-12-08T07:05:31.294Z,96246.81
2018-12-08T07:07:57.160Z,96249.45
2018-12-08T07:10:23.062Z,96245.52
2018-12-08T07:12:48.992Z,96251.56
2018-12-08T07:15:14.902Z,96257.52
2018-12-08T07:17:40.787Z,96245.45
2018-12-08T07:20:06.725Z,96255.34
2018-12-08T07:22:32.623Z,96262.12
2018-12-08T07:24:58.494Z,96252.91
2018-12-08T07:27:24.425Z,96251.52
2018-12-08T07:29:50.305Z,96259.27
2018-12-08T07:32:16.194Z,96261.89
2018-12-08T07:34:42.058Z,96259.56
2018-12-08T07:37:07.895Z,96237.83
2018-12-08T07:39:33.782Z,96256.94
2018-12-08T07:41:59.682Z,96246.41
2018-12-08T07:44:25.582Z,96235.64
2018-12-08T07:46:51.439Z,96248.95
2018-12-08T07:49:17.276Z,96244.14
2018-12-08T07:51:43.183Z,96249.14
2018-12-08T07:54:09.062Z,96238.84
2018-12-08T07:56:34.933Z,96248.02
2018-12-08T07:59:00.812Z,96253.25
2018-12-08T08:01:26.710Z,96256.11
2018-12-08T08:03:52.602Z,96224.38
2018-12-08T08:06:18.487Z,96245.28
2018-12-08T08:08:44.336Z,96241.80
2018-12-08T08:11:10.219Z,96245.97
2018-12-08T08:13:36.090Z,96262.23
2018-12-08T08:16:01.979Z,96247.39
2018-12-08T08:18:27.961Z,96238.79
2018-12-08T08:20:53.831Z,96238.84
2018-12-08T08:23:19.711Z,96232.83
2018-12-08T08:25:45.578Z,96231.09
2018-12-08T08:28:11.454Z,96233.48
2018-12-08T08:30:37.390Z,96229.39
2018-12-08T08:35:43.724Z,96238.02
2018-12-08T08:38:09.604Z,96224.39
2018-12-08T08:40:35.448Z,96217.12
2018-12-08T08:43:01.366Z,96213.25
2018-12-08T08:45:27.420Z,96220.22
2018-12-08T08:47:53.281Z,96201.88
2018-12-08T08:50:19.161Z,96216.69
2018-12-08T08:52:45.011Z,96212.34
2018-12-08T08:55:10.900Z,96203.89
2018-12-08T08:57:36.777Z,96210.89
2018-12-08T09:00:05.175Z,96202.33
2018-12-08T09:02:31.089Z,96208.31
2018-12-08T09:04:57.165Z,96187.82
2018-12-08T09:07:23.049Z,96180.67
2018-12-08T09:09:48.912Z,96188.41
2018-12-08T09:12:14.801Z,96175.55
2018-12-08T09:14:40.630Z,96176.05
2018-12-08T09:17:07.180Z,96183.19
2018-12-08T09:19:33.015Z,96179.26
2018-12-08T09:21:58.905Z,96176.40
2018-12-08T09:24:24.766Z,96169.44
2018-12-08T09:26:50.647Z,96171.91
2018-12-08T09:29:16.487Z,96172.05
2018-12-08T09:31:42.428Z,96163.23
2018-12-08T09:34:08.302Z,96169.09
2018-12-08T09:36:34.362Z,96164.14
2018-12-08T09:39:00.273Z,96169.16
2018-12-08T09:41:26.153Z,96166.94
2018-12-08T09:43:52.018Z,96157.28
2018-12-08T09:46:17.927Z,96124.91
2018-12-08T09:48:43.818Z,96158.59
2018-12-08T09:51:09.698Z,96153.34
2018-12-08T09:53:35.556Z,96150.86
2018-12-08T09:56:01.491Z,96145.25
2018-12-08T09:58:27.367Z,96153.89
2018-12-08T10:00:53.226Z,96143.94
2018-12-08T10:03:19.115Z,96133.62
2018-12-08T10:05:45.009Z,96122.49
2018-12-08T10:08:10.890Z,96116.58
2018-12-08T10:10:36.846Z,96113.12
2018-12-08T10:15:55.439Z,96110.12
2018-12-08T10:18:21.434Z,96098.82
2018-12-08T10:20:47.331Z,96099.52
2018-12-08T10:23:13.261Z,96099.55
2018-12-08T10:25:39.186Z,96087.52
2018-12-08T10:28:05.125Z,96099.92
2018-12-08T10:30:31.006Z,96095.92
2018-12-08T10:32:56.875Z,96083.19
2018-12-08T10:35:22.734Z,96064.66
2018-12-08T10:37:48.619Z,96085.28
2018-12-08T10:40:14.464Z,96083.94
2018-12-08T10:42:40.443Z,96079.77
2018-12-08T10:45:06.462Z,96081.08
2018-12-08T10:47:32.385Z,96073.52
2018-12-08T10:49:58.262Z,96064.16
2018-12-08T10:52:24.099Z,96066.34
2018-12-08T10:54:50.025Z,96076.02
2018-12-08T10:57:15.945Z,96071.86
2018-12-08T10:59:41.805Z,96067.70
2018-12-08T11:02:09.695Z,96074.61
2018-12-08T11:04:35.594Z,96063.05
2018-12-08T11:07:01.482Z,96067.94
2018-12-08T11:09:27.344Z,96056.35
2018-12-08T11:11:53.262Z,96046.41
2018-12-08T11:14:19.141Z,96043.55
2018-12-08T11:16:45.072Z,96044.09
2018-12-08T11:19:10.938Z,96040.57
2018-12-08T11:21:37.238Z,96053.50
2018-12-08T11:24:03.135Z,96044.63
2018-12-08T11:26:29.011Z,96038.08
2018-12-08T11:28:54.908Z,96023.00
2018-12-08T11:31:21.814Z,96007.22
2018-12-08T11:33:48.934Z,96024.16
2018-12-08T11:36:14.950Z,96026.47
2018-12-08T11:38:40.810Z,96027.34
2018-12-08T11:41:06.683Z,96021.27
2018-12-08T11:43:32.549Z,96019.19
2018-12-08T11:45:58.440Z,96007.16
2018-12-08T11:48:24.311Z,96023.66
2018-12-08T11:50:50.202Z,96027.11
2018-12-08T11:53:16.150Z,96025.33
2018-12-08T11:55:42.054Z,96029.33
2018-12-08T11:58:07.935Z,96027.34
2018-12-08T12:00:33.948Z,96034.91
2018-12-08T12:02:59.851Z,96027.72
2018-12-08T12:05:25.774Z,96025.73
2018-12-08T12:07:51.631Z,96020.32
2018-12-08T12:10:17.692Z,96019.61
2018-12-08T12:12:43.601Z,96028.08
2018-12-08T12:15:09.498Z,96027.06
2018-12-08T12:17:35.424Z,96024.24
2018-12-08T12:20:01.531Z,96028.38
2018-12-08T12:22:27.407Z,96020.98
2018-12-08T12:24:53.423Z,96017.36
2018-12-08T12:27:19.395Z,96022.36
2018-12-08T12:29:45.344Z,96026.30
2018-12-08T12:32:11.235Z,96019.00
2018-12-08T12:34:37.085Z,96015.08
2018-12-08T12:37:03.271Z,96015.80
2018-12-08T12:39:29.132Z,96005.39
2018-12-08T12:41:55.109Z,96003.78
2018-12-08T12:44:20.978Z,95989.53
2018-12-08T12:46:46.923Z,96007.16
2018-12-08T12:49:12.819Z,96000.61
2018-12-08T12:51:38.675Z,96011.92
2018-12-08T12:54:04.673Z,96017.45
2018-12-08T12:56:30.539Z,96012.69
2018-12-08T12:58:56.490Z,96011.62
2018-12-08T13:01:22.410Z,96015.19
2018-12-08T13:03:48.451Z,95992.39
2018-12-08T13:06:14.317Z,95986.08
2018-12-08T13:08:40.234Z,95972.92
2018-12-08T13:11:06.153Z,95980.78
2018-12-08T13:13:32.042Z,96005.63
2018-12-08T13:15:57.933Z,96009.02
2018-12-08T13:18:23.925Z,96002.64
2018-12-08T13:20:49.811Z,96003.41
2018-12-08T13:23:15.726Z,96001.50
2018-12-08T13:25:41.882Z,95995.66
2018-12-08T13:28:07.778Z,96004.02
2018-12-08T13:30:33.678Z,95998.12
2018-12-08T13:32:59.841Z,95994.13
2018-12-08T13:35:37.866Z,96006.82
2018-12-08T13:38:03.729Z,96012.00
2018-12-08T13:40:29.604Z,96000.98
2018-12-08T13:42:55.470Z,96008.47
2018-12-08T13:45:21.382Z,96005.08
2018-12-08T13:47:47.216Z,96012.94
2018-12-08T13:50:13.130Z,96008.94
2018-12-08T13:52:39.195Z,96006.63
2018-12-08T13:55:05.111Z,96005.55
2018-12-08T13:57:30.989Z,95995.60
2018-12-08T13:59:56.882Z,96002.35
2018-12-08T14:02:22.728Z,95990.30
2018-12-08T14:04:48.583Z,96006.98
2018-12-08T14:07:14.525Z,96001.91
2018-12-08T14:09:40.387Z,95989.05
2018-12-08T14:12:06.295Z,96006.85
2018-12-08T14:14:32.163Z,96006.08
2018-12-08T14:16:58.131Z,96009.30
2018-12-08T14:19:26.143Z,96019.79
2018-12-08T14:21:52.046Z,96010.38
2018-12-08T14:24:17.969Z,96016.22
2018-12-08T14:26:43.858Z,96007.52
2018-12-08T14:29:11.238Z,96007.29
2018-12-08T14:31:37.523Z,95999.73
2018-12-08T14:34:03.543Z,96015.45
2018-12-08T14:36:29.508Z,96016.22
2018-12-08T14:38:57.709Z,96007.86
2018-12-08T14:41:23.328Z,96009.48
2018-12-08T14:43:49.246Z,96013.70
2018-12-08T14:46:15.868Z,96008.70
2018-12-08T14:48:41.846Z,96019.42
2018-12-08T14:51:07.708Z,96008.94
2018-12-08T14:53:33.602Z,96017.88
2018-12-08T14:55:59.475Z,96016.33
2018-12-08T14:58:25.394Z,96018.17
2018-12-08T15:00:51.262Z,96016.56
2018-12-08T15:03:17.169Z,96019.72
2018-12-08T15:05:43.051Z,96003.23
2018-12-08T15:08:08.919Z,96004.84
2018-12-08T15:10:34.785Z,96008.30
2018-12-08T15:13:00.650Z,96004.37
2018-12-08T15:15:26.523Z,96012.36
2018-12-08T15:17:52.451Z,96006.05
2018-12-08T15:20:18.316Z,96004.73
2018-12-08T15:22:44.183Z,96005.27
2018-12-08T15:25:10.086Z,96000.30
2018-12-08T15:27:35.962Z,95993.48
2018-12-08T15:30:02.116Z,95998.22
2018-12-08T15:32:27.976Z,96001.14
2018-12-08T15:34:53.915Z,95989.36
2018-12-08T15:37:19.798Z,95997.45
2018-12-08T15:39:45.655Z,96001.38
2018-12-08T15:42:11.573Z,95997.18
2018-12-08T15:44:37.457Z,96005.08
2018-12-08T15:47:03.326Z,96000.61
2018-12-08T15:49:29.207Z,95999.53
2018-12-08T15:51:55.162Z,96002.42
2018-12-08T15:54:21.098Z,96006.34
2018-12-08T15:56:46.969Z,95983.17
2018-12-08T15:59:12.831Z,95990.66
2018-12-08T16:01:38.698Z,95981.73
2018-12-08T16:04:04.565Z,95985.19
2018-12-08T16:06:30.458Z,95983.03
2018-12-08T16:08:56.481Z,95964.16
2018-12-08T16:11:22.402Z,95974.83
2018-12-08T16:13:48.259Z,95979.53
2018-12-08T16:16:14.116Z,95988.64
2018-12-08T16:18:40.090Z,95979.16
2018-12-08T16:21:06.104Z,95985.48
2018-12-08T16:23:32.012Z,95987.56
2018-12-08T16:25:58.024Z,95996.44
2018-12-08T16:28:23.922Z,95993.05
2018-12-08T16:30:49.818Z,95987.16
2018-12-08T16:33:15.682Z,95995.03
2018-12-08T16:35:41.644Z,95983.51
2018-12-08T16:38:07.535Z,95986.97
2018-12-08T16:40:33.420Z,95994.53
2018-12-08T16:42:59.310Z,95985.13
2018-12-08T16:45:25.292Z,95995.91
2018-12-08T16:47:51.154Z,95991.44
2018-12-08T16:50:17.057Z,95919.84
2018-12-08T16:52:43.202Z,95987.67
2018-12-08T16:55:09.077Z,95970.13
2018-12-08T16:57:34.967Z,95966.44
2018-12-08T17:00:00.858Z,95959.81
2018-12-08T17:02:26.844Z,95960.52
2018-12-08T17:04:52.762Z,95963.14
2018-12-08T17:07:18.624Z,95965.76
2018-12-08T17:09:44.534Z,95953.27
2018-12-08T17:12:10.623Z,95952.42
2018-12-08T17:14:36.649Z,95958.67
2018-12-08T17:17:02.602Z,95959.98
2018-12-08T17:19:28.527Z,95964.91
2018-12-08T17:21:54.454Z,95955.20
2018-12-08T17:24:20.283Z,95960.91
2018-12-08T17:26:46.273Z,95958.48
2018-12-08T17:29:12.186Z,95960.27
2018-12-08T17:34:33.010Z,95965.51
2018-12-08T17:39:31.554Z,95966.89
2018-12-08T17:41:57.458Z,95958.06
2018-12-08T17:44:23.327Z,95936.95
2018-12-08T17:46:49.266Z,95953.27
2018-12-08T17:49:16.511Z,95953.61
2018-12-08T17:51:42.463Z,95956.36
2018-12-08T17:54:08.471Z,95942.86
2018-12-08T17:56:34.337Z,95947.87
2018-12-08T17:59:00.253Z,95932.73
2018-12-08T18:01:26.266Z,95937.42
2018-12-08T18:03:52.266Z,95940.31
2018-12-08T18:06:18.128Z,95927.48
2018-12-08T18:08:44.063Z,95931.67
2018-12-08T18:11:09.933Z,95932.19
2018-12-08T18:13:35.810Z,95925.36
2018-12-08T18:16:01.805Z,95923.98
2018-12-08T18:18:27.705Z,95934.25
2018-12-08T18:20:53.663Z,95932.06
2018-12-08T18:23:19.881Z,95926.75
2018-12-08T18:25:45.725Z,95923.83
2018-12-08T18:28:11.623Z,95922.52
2018-12-08T18:30:37.484Z,95921.98
2018-12-08T18:33:03.371Z,95917.81
2018-12-08T18:35:29.260Z,95908.87
2018-12-08T18:37:55.130Z,95914.66
2018-12-08T18:40:21.054Z,95903.16
2018-12-08T18:42:46.970Z,95900.55
2018-12-08T18:45:12.955Z,95918.12
2018-12-08T18:47:38.927Z,95900.37
2018-12-08T18:50:07.045Z,95898.84
2018-12-08T18:52:32.955Z,95897.53
2018-12-08T18:54:58.862Z,95904.08
2018-12-08T18:57:24.739Z,95884.16
2018-12-08T18:59:50.622Z,95885.73
2018-12-08T19:02:16.596Z,95887.86
2018-12-08T19:04:42.478Z,95876.84
2018-12-08T19:07:08.362Z,95882.58
2018-12-08T19:09:34.222Z,95886.98
2018-12-08T19:12:00.126Z,95871.25
2018-12-08T19:14:25.994Z,95871.55
2018-12-08T19:19:44.713Z,95866.94
2018-12-08T19:22:10.594Z,95855.14
2018-12-08T19:24:36.487Z,95859.62
2018-12-08T19:27:02.395Z,95859.47
2018-12-08T19:29:28.303Z,95857.50
2018-12-08T19:31:54.238Z,95850.25
2018-12-08T19:34:20.087Z,95855.73
2018-12-08T19:36:46.004Z,95853.30
2018-12-08T19:39:11.867Z,95859.77
2018-12-08T19:41:37.721Z,95833.91
2018-12-08T19:44:03.599Z,95839.11
2018-12-08T19:46:29.498Z,95844.27
2018-12-08T19:48:55.352Z,95844.81
2018-12-08T19:51:21.281Z,95842.66
2018-12-08T19:53:47.174Z,95847.90
2018-12-08T19:56:13.083Z,95842.96
2018-12-08T19:58:38.999Z,95832.70
2018-12-08T20:01:04.887Z,95833.25
2018-12-08T20:03:31.682Z,95825.92
2018-12-08T20:05:57.660Z,95824.84
2018-12-08T20:08:23.553Z,95825.08
2018-12-08T20:10:49.407Z,95812.27
2018-12-08T20:13:15.258Z,95805.95
2018-12-08T20:15:41.115Z,95797.08
2018-12-08T20:18:07.000Z,95796.55
2018-12-08T20:20:32.860Z,95795.46
2018-12-08T20:22:58.731Z,95787.37
2018-12-08T20:25:24.579Z,95781.58
2018-12-08T20:27:50.433Z,95782.58
2018-12-08T20:30:16.339Z,95773.64
2018-12-08T20:32:42.203Z,95768.63
2018-12-08T20:35:08.176Z,95761.06
2018-12-08T20:37:34.028Z,95754.74
2018-12-08T20:39:59.944Z,95758.37
2018-12-08T20:42:25.944Z,95748.34
2018-12-08T20:44:51.907Z,95742.02
2018-12-08T20:47:17.777Z,95739.87
2018-12-08T20:49:43.636Z,95728.67
2018-12-08T20:52:09.687Z,95733.63
2018-12-08T20:54:35.574Z,95729.77
2018-12-08T20:57:01.443Z,95725.29
2018-12-08T20:59:27.312Z,95710.55
2018-12-08T21:01:53.219Z,95705.45
2018-12-08T21:04:19.140Z,95699.67
2018-12-08T21:06:45.013Z,95686.55
2018-12-08T21:09:10.893Z,95686.78
2018-12-08T21:11:36.795Z,95684.88
2018-12-08T21:14:02.877Z,95689.13
2018-12-08T21:16:28.826Z,95684.41
2018-12-08T21:18:54.792Z,95674.98
2018-12-08T21:21:20.877Z,95663.80
2018-12-08T21:23:46.810Z,95664.27
2018-12-08T21:26:12.764Z,95650.92
2018-12-08T21:28:38.661Z,95638.58
2018-12-08T21:31:04.560Z,95636.90
2018-12-08T21:33:30.524Z,95605.16
2018-12-08T21:35:56.429Z,95629.88
2018-12-08T21:38:22.378Z,95628.48
2018-12-08T21:40:48.326Z,95625.55
2018-12-08T21:43:14.371Z,95612.25
2018-12-08T21:45:40.299Z,95621.44
2018-12-08T21:48:06.253Z,95604.84
2018-12-08T21:50:32.846Z,95595.97
2018-12-08T21:52:58.787Z,95579.02
2018-12-08T21:55:24.740Z,95569.56
2018-12-08T21:57:51.048Z,95567.17
2018-12-08T22:00:16.972Z,95556.97
2018-12-08T22:02:42.887Z,95547.52
2018-12-08T22:05:08.823Z,95534.95
2018-12-08T22:07:34.798Z,95530.47
2018-12-08T22:10:00.694Z,95528.16
2018-12-08T22:12:26.613Z,95530.42
2018-12-08T22:14:57.390Z,95515.21
2018-12-08T22:17:23.307Z,95501.42
2018-12-08T22:19:49.216Z,95512.14
2018-12-08T22:22:15.135Z,95492.80
2018-12-08T22:24:41.050Z,95498.26
2018-12-08T22:27:07.167Z,95480.13
2018-12-08T22:29:33.071Z,95465.48
2018-12-08T22:31:58.952Z,95459.55
2018-12-08T22:34:24.822Z,95454.52
2018-12-08T22:36:50.705Z,95452.13
2018-12-08T22:39:16.554Z,95451.48
2018-12-08T22:41:42.456Z,95432.59
2018-12-08T22:44:08.385Z,95439.05
2018-12-08T22:46:34.363Z,95424.24
2018-12-08T22:49:00.247Z,95418.23
2018-12-08T22:51:26.134Z,95404.70
2018-12-08T22:53:52.034Z,95409.20
2018-12-08T22:56:17.891Z,95407.57
2018-12-08T22:58:43.761Z,95405.49
2018-12-08T23:01:09.759Z,95400.47
2018-12-08T23:03:35.651Z,95384.38
2018-12-08T23:06:01.536Z,95389.73
2018-12-08T23:08:27.420Z,95388.75
2018-12-08T23:10:53.313Z,95305.77
2018-12-08T23:13:19.216Z,95363.19
2018-12-08T23:15:45.076Z,95354.99
2018-12-08T23:18:10.953Z,95356.89
2018-12-08T23:20:36.821Z,95348.38
2018-12-08T23:23:02.729Z,95323.34
2018-12-08T23:25:28.701Z,95336.80
2018-12-08T23:27:54.615Z,95336.08
2018-12-08T23:30:20.588Z,95329.63
2018-12-08T23:32:46.575Z,95318.03
2018-12-08T23:35:12.454Z,95313.23
2018-12-08T23:37:38.428Z,95308.20
2018-12-08T23:40:04.799Z,95302.06
2018-12-08T23:42:30.694Z,95297.27
2018-12-08T23:44:56.554Z,95280.43
2018-12-08T23:47:22.428Z,95281.20
2018-12-08T23:49:48.405Z,95279.48
2018-12-08T23:52:14.264Z,95190.05
2018-12-08T23:54:40.131Z,95277.63
2018-12-08T23:57:06.051Z,95267.56
2018-12-08T23:59:32.181Z,95244.70
